createdAt,value
2019-04-11T00:00:45.858Z,2.83
2019-04-11T00:03:15.372Z,2.60
2019-04-11T00:05:45.308Z,2.30
2019-04-11T00:08:14.417Z,2.50
2019-04-11T00:10:43.492Z,2.33
2019-04-11T00:13:21.146Z,2.20
2019-04-11T00:15:44.483Z,1.77
2019-04-11T00:18:14.448Z,1.90
2019-04-11T00:20:44.373Z,2.03
2019-04-11T00:23:14.193Z,2.17
2019-04-11T00:25:44.103Z,1.70
2019-04-11T00:28:13.234Z,1.40
2019-04-11T00:30:42.285Z,1.70
2019-04-11T00:33:11.354Z,1.80
2019-04-11T00:35:40.433Z,1.60
2019-04-11T00:38:09.857Z,2.20
2019-04-11T00:40:39.555Z,2.20
2019-04-11T00:43:09.432Z,2.43
2019-04-11T00:45:38.572Z,1.97
2019-04-11T00:48:07.626Z,2.10
2019-04-11T00:50:37.235Z,2.07
2019-04-11T00:53:06.557Z,2.07
2019-04-11T00:55:36.203Z,1.40
2019-04-11T00:58:05.631Z,1.63
2019-04-11T01:00:35.528Z,1.97
2019-04-11T01:03:06.496Z,1.70
2019-04-11T01:05:35.818Z,1.40
2019-04-11T01:08:05.231Z,2.00
2019-04-11T01:10:34.673Z,2.30
2019-04-11T01:13:04.982Z,1.67
2019-04-11T01:15:34.664Z,1.70
2019-04-11T01:18:03.738Z,2.13
2019-04-11T01:20:32.787Z,1.43
2019-04-11T01:23:02.802Z,2.80
2019-04-11T01:25:32.671Z,1.97
2019-04-11T01:28:02.645Z,2.13
2019-04-11T01:30:38.915Z,1.97
2019-04-11T01:33:07.996Z,1.80
2019-04-11T01:35:37.392Z,1.83
2019-04-11T01:38:06.725Z,2.00
2019-04-11T01:40:36.044Z,2.50
2019-04-11T01:43:06.027Z,2.10
2019-04-11T01:45:35.824Z,2.10
2019-04-11T01:48:12.338Z,2.10
2019-04-11T01:50:41.388Z,1.67
2019-04-11T01:53:11.015Z,1.90
2019-04-11T01:55:40.829Z,1.87
2019-04-11T01:58:10.844Z,1.70
2019-04-11T02:00:53.238Z,1.63
2019-04-11T02:03:37.526Z,2.20
2019-04-11T02:06:07.605Z,1.70
2019-04-11T02:08:37.613Z,1.70
2019-04-11T02:11:08.152Z,1.80
2019-04-11T02:13:37.246Z,1.70
2019-04-11T02:16:06.375Z,2.53
2019-04-11T02:18:35.446Z,2.17
2019-04-11T02:21:05.240Z,2.00
2019-04-11T02:23:53.145Z,2.30
2019-04-11T02:26:33.652Z,1.90
2019-04-11T02:29:03.479Z,1.67
2019-04-11T02:31:32.766Z,1.67
2019-04-11T02:34:04.441Z,1.70
2019-04-11T02:36:34.147Z,1.40
2019-04-11T02:39:11.750Z,2.20
2019-04-11T02:41:38.043Z,1.70
2019-04-11T02:44:27.234Z,1.83
2019-04-11T02:46:50.151Z,1.57
2019-04-11T02:49:10.242Z,1.90
2019-04-11T02:51:40.199Z,2.00
2019-04-11T02:54:09.410Z,1.90
2019-04-11T02:56:40.485Z,1.80
2019-04-11T02:59:11.217Z,1.80
2019-04-11T03:01:42.020Z,1.70
2019-04-11T03:04:12.755Z,1.70
2019-04-11T03:06:43.836Z,1.80
2019-04-11T03:09:13.356Z,1.60
2019-04-11T03:11:45.087Z,1.50
2019-04-11T03:14:17.969Z,2.00
2019-04-11T03:16:56.706Z,1.60
2019-04-11T03:19:29.754Z,1.60
2019-04-11T03:21:47.504Z,1.60
2019-04-11T03:24:17.659Z,1.40
2019-04-11T03:26:47.247Z,1.50
2019-04-11T03:29:17.749Z,1.30
2019-04-11T03:32:34.190Z,1.40
2019-04-11T03:35:17.465Z,1.70
2019-04-11T03:37:21.055Z,1.50
2019-04-11T03:39:41.308Z,1.50
2019-04-11T03:42:04.138Z,1.70
2019-04-11T03:44:28.671Z,1.47
2019-04-11T03:47:14.620Z,1.30
2019-04-11T03:49:32.847Z,1.47
2019-04-11T03:51:55.135Z,1.40
2019-04-11T03:54:25.327Z,1.50
2019-04-11T03:56:54.675Z,1.47
2019-04-11T03:59:23.943Z,1.90
2019-04-11T04:01:54.262Z,2.13
2019-04-11T04:04:26.270Z,1.43
2019-04-11T04:06:57.594Z,1.80
2019-04-11T04:09:28.588Z,1.60
2019-04-11T04:11:59.007Z,2.43
2019-04-11T04:14:53.900Z,1.60
2019-04-11T04:17:43.238Z,1.90
2019-04-11T04:20:21.551Z,1.77
2019-04-11T04:23:07.380Z,1.70
2019-04-11T04:25:37.353Z,1.60
2019-04-11T04:28:09.593Z,1.80
2019-04-11T04:30:40.567Z,1.47
2019-04-11T04:33:10.699Z,1.60
2019-04-11T04:35:42.092Z,1.77
2019-04-11T04:38:13.508Z,1.53
2019-04-11T04:40:58.549Z,1.67
2019-04-11T04:43:14.701Z,1.83
2019-04-11T04:46:07.452Z,1.87
2019-04-11T04:48:20.034Z,1.90
2019-04-11T04:50:48.769Z,1.70
2019-04-11T04:53:18.070Z,1.97
2019-04-11T04:55:50.300Z,1.60
2019-04-11T04:58:20.761Z,1.50
2019-04-11T05:00:53.260Z,1.60
2019-04-11T05:03:22.282Z,2.60
2019-04-11T05:05:52.978Z,1.73
2019-04-11T05:08:22.943Z,1.50
2019-04-11T05:10:53.426Z,1.60
2019-04-11T05:13:23.914Z,1.50
2019-04-11T05:16:04.701Z,1.60
2019-04-11T05:18:23.793Z,2.77
2019-04-11T05:20:52.879Z,2.37
2019-04-11T05:23:21.932Z,1.97
2019-04-11T05:25:51.033Z,1.80
2019-04-11T05:28:21.362Z,1.37
2019-04-11T05:30:51.245Z,1.40
2019-04-11T05:33:21.260Z,2.37
2019-04-11T05:35:50.385Z,2.60
2019-04-11T05:38:19.506Z,1.60
2019-04-11T05:40:48.559Z,2.77
2019-04-11T05:43:17.775Z,2.00
2019-04-11T05:45:50.518Z,3.30
2019-04-11T05:48:35.464Z,2.13
2019-04-11T05:51:04.646Z,2.50
2019-04-11T05:53:36.408Z,3.33
2019-04-11T05:56:04.546Z,2.90
2019-04-11T05:58:34.649Z,2.80
2019-04-11T06:01:31.889Z,2.40
2019-04-11T06:04:05.939Z,3.93
2019-04-11T06:06:41.797Z,2.93
2019-04-11T06:09:16.309Z,2.73
2019-04-11T06:12:05.304Z,3.73
2019-04-11T06:14:39.637Z,3.30
2019-04-11T06:17:11.512Z,3.37
2019-04-11T06:19:58.684Z,2.23
2019-04-11T06:22:27.738Z,3.63
2019-04-11T06:25:16.675Z,3.73
2019-04-11T06:27:51.669Z,4.03
2019-04-11T06:30:54.932Z,3.50
2019-04-11T06:33:30.733Z,2.53
2019-04-11T06:36:21.676Z,3.23
2019-04-11T06:39:09.310Z,3.57
2019-04-11T06:42:04.767Z,3.53
2019-04-11T06:44:46.018Z,3.10
2019-04-11T06:47:45.027Z,3.50
2019-04-11T06:50:42.387Z,3.67
2019-04-11T06:53:13.337Z,2.63
2019-04-11T06:56:00.723Z,2.77
2019-04-11T06:58:35.144Z,3.27
2019-04-11T07:01:09.692Z,3.00
2019-04-11T07:03:44.993Z,2.47
2019-04-11T07:06:19.607Z,2.37
2019-04-11T07:09:03.291Z,4.10
2019-04-11T07:11:42.674Z,3.63
2019-04-11T07:14:31.217Z,4.20
2019-04-11T07:17:18.867Z,3.07
2019-04-11T07:20:16.599Z,5.17
2019-04-11T07:23:03.736Z,4.27
2019-04-11T07:25:47.372Z,3.17
2019-04-11T07:28:23.717Z,3.40
2019-04-11T07:31:10.970Z,4.07
2019-04-11T07:34:06.152Z,4.03
2019-04-11T07:36:53.599Z,4.20
2019-04-11T07:39:35.897Z,3.93
2019-04-11T07:42:34.100Z,4.17
2019-04-11T07:45:04.401Z,4.80
2019-04-11T07:47:48.305Z,3.30
2019-04-11T07:50:19.528Z,4.30
2019-04-11T07:52:51.630Z,4.53
2019-04-11T07:55:23.004Z,4.30
2019-04-11T07:57:56.694Z,4.97
2019-04-11T08:00:47.461Z,3.80
2019-04-11T08:03:32.151Z,4.33
2019-04-11T08:06:09.662Z,4.70
2019-04-11T08:09:09.917Z,3.83
2019-04-11T08:11:44.303Z,4.60
2019-04-11T08:14:20.883Z,4.17
2019-04-11T08:17:07.220Z,4.40
2019-04-11T08:19:55.326Z,4.20
2019-04-11T08:22:35.170Z,3.37
2019-04-11T08:25:17.438Z,4.00
2019-04-11T08:28:00.221Z,4.53
2019-04-11T08:30:26.632Z,4.57
2019-04-11T08:32:58.233Z,5.00
2019-04-11T08:35:52.981Z,4.33
2019-04-11T08:38:32.202Z,4.90
2019-04-11T08:41:27.463Z,3.93
2019-04-11T08:43:56.582Z,3.37
2019-04-11T08:46:31.038Z,4.83
2019-04-11T08:49:03.551Z,5.10
2019-04-11T08:51:33.603Z,4.10
2019-04-11T08:54:19.533Z,4.63
2019-04-11T08:56:49.458Z,2.70
2019-04-11T08:59:44.052Z,4.70
2019-04-11T09:02:18.525Z,5.10
2019-04-11T09:05:11.938Z,3.77
2019-04-11T09:07:44.275Z,3.40
2019-04-11T09:10:33.705Z,4.60
2019-04-11T09:13:09.189Z,3.87
2019-04-11T09:15:57.180Z,3.77
2019-04-11T09:18:26.262Z,4.00
2019-04-11T09:21:12.474Z,3.53
2019-04-11T09:23:41.914Z,3.70
2019-04-11T09:26:28.127Z,3.60
2019-04-11T09:28:59.655Z,3.17
2019-04-11T09:31:49.126Z,4.97
2019-04-11T09:34:35.692Z,3.50
2019-04-11T09:37:22.423Z,3.40
2019-04-11T09:40:19.546Z,4.50
2019-04-11T09:43:07.656Z,4.30
2019-04-11T09:45:54.560Z,3.80
2019-04-11T09:48:31.787Z,3.43
2019-04-11T09:51:29.207Z,2.60
2019-04-11T09:54:05.631Z,2.30
2019-04-11T09:57:04.354Z,3.00
2019-04-11T10:00:01.964Z,3.77
2019-04-11T10:03:01.968Z,3.87
2019-04-11T10:05:59.060Z,2.60
2019-04-11T10:08:39.616Z,3.90
2019-04-11T10:11:43.253Z,3.40
2019-04-11T10:14:15.542Z,3.27
2019-04-11T10:17:02.548Z,3.20
2019-04-11T10:19:44.207Z,4.60
2019-04-11T10:22:27.088Z,3.03
2019-04-11T10:25:28.487Z,3.20
2019-04-11T10:28:29.836Z,3.20
2019-04-11T10:31:10.948Z,2.70
2019-04-11T10:34:06.126Z,2.27
2019-04-11T10:36:57.463Z,3.10
2019-04-11T10:39:54.721Z,2.93
2019-04-11T10:42:26.632Z,3.20
2019-04-11T10:45:27.182Z,3.20
2019-04-11T10:47:58.034Z,2.33
2019-04-11T10:50:56.159Z,2.93
2019-04-11T10:53:26.964Z,2.10
2019-04-11T10:56:34.678Z,2.30
2019-04-11T10:59:05.136Z,2.20
2019-04-11T11:01:58.154Z,2.30
2019-04-11T11:04:36.759Z,2.40
2019-04-11T11:07:10.173Z,2.13
2019-04-11T11:09:44.456Z,1.80
2019-04-11T11:12:33.022Z,1.70
2019-04-11T11:15:11.498Z,1.83
2019-04-11T11:18:42.459Z,2.20
2019-04-11T11:20:59.254Z,2.20
2019-04-11T11:23:45.470Z,3.37
2019-04-11T11:26:22.742Z,2.40
2019-04-11T11:29:00.491Z,2.47
2019-04-11T11:31:50.570Z,2.90
2019-04-11T11:34:49.254Z,3.07
2019-04-11T11:37:45.098Z,2.97
2019-04-11T11:40:32.095Z,2.10
2019-04-11T11:43:10.824Z,3.27
2019-04-11T11:45:51.892Z,2.40
2019-04-11T11:48:49.964Z,2.80
2019-04-11T11:51:37.475Z,2.83
2019-04-11T11:54:13.515Z,2.00
2019-04-11T11:56:44.356Z,2.67
2019-04-11T11:59:32.431Z,2.27
2019-04-11T12:02:04.607Z,2.40
2019-04-11T12:05:07.886Z,2.20
2019-04-11T12:07:41.019Z,1.50
2019-04-11T12:10:39.574Z,1.50
2019-04-11T12:13:47.351Z,2.17
2019-04-11T12:16:34.689Z,2.73
2019-04-11T12:19:22.287Z,2.40
2019-04-11T12:21:53.740Z,2.37
2019-04-11T12:24:27.945Z,2.13
2019-04-11T12:27:04.508Z,2.00
2019-04-11T12:29:53.182Z,2.50
2019-04-11T12:32:25.604Z,1.90
2019-04-11T12:35:04.304Z,1.70
2019-04-11T12:37:37.934Z,1.90
2019-04-11T12:40:25.169Z,2.00
2019-04-11T12:42:54.246Z,1.90
2019-04-11T12:45:40.774Z,1.50
2019-04-11T12:48:11.911Z,1.60
2019-04-11T12:50:59.559Z,1.40
2019-04-11T12:53:28.871Z,1.77
2019-04-11T12:56:28.993Z,1.40
2019-04-11T12:59:10.302Z,1.50
2019-04-11T13:01:56.913Z,1.23
2019-04-11T13:04:37.170Z,1.57
2019-04-11T13:07:31.183Z,1.27
2019-04-11T13:10:06.593Z,1.50
2019-04-11T13:13:00.795Z,1.47
2019-04-11T13:15:36.322Z,1.27
2019-04-11T13:18:23.075Z,1.67
2019-04-11T13:20:59.086Z,1.60
2019-04-11T13:23:46.288Z,1.87
2019-04-11T13:26:33.248Z,1.60
2019-04-11T13:29:24.327Z,1.60
2019-04-11T13:32:24.351Z,1.40
2019-04-11T13:34:55.804Z,1.40
2019-04-11T13:37:43.904Z,1.60
2019-04-11T13:40:35.010Z,1.57
2019-04-11T13:43:21.787Z,1.57
2019-04-11T13:46:08.885Z,1.60
2019-04-11T13:48:56.960Z,1.50
2019-04-11T13:51:39.964Z,1.60
2019-04-11T13:54:26.703Z,1.60
2019-04-11T13:57:08.164Z,1.70
2019-04-11T13:59:55.137Z,1.90
2019-04-11T14:02:36.562Z,1.93
2019-04-11T14:05:10.658Z,1.57
2019-04-11T14:07:37.569Z,1.57
2019-04-11T14:10:08.471Z,1.73
2019-04-11T14:12:38.070Z,1.73
2019-04-11T14:15:10.515Z,1.77
2019-04-11T14:17:50.697Z,1.23
2019-04-11T14:20:41.837Z,1.50
2019-04-11T14:23:34.945Z,1.60
2019-04-11T14:26:23.022Z,1.20
2019-04-11T14:28:59.058Z,1.50
2019-04-11T14:31:44.779Z,1.30
2019-04-11T14:34:32.309Z,1.20
2019-04-11T14:37:33.142Z,1.73
2019-04-11T14:40:01.786Z,1.40
2019-04-11T14:42:52.120Z,1.77
2019-04-11T14:45:33.723Z,1.37
2019-04-11T14:48:19.066Z,1.60
2019-04-11T14:51:19.081Z,1.50
2019-04-11T14:54:04.157Z,1.57
2019-04-11T14:56:33.673Z,1.10
2019-04-11T14:59:24.996Z,1.67
2019-04-11T15:02:01.199Z,1.23
2019-04-11T15:04:47.842Z,1.03
2019-04-11T15:07:16.941Z,1.33
2019-04-11T15:10:07.922Z,1.40
2019-04-11T15:12:36.850Z,1.47
2019-04-11T15:15:25.698Z,1.27
2019-04-11T15:17:57.054Z,1.80
2019-04-11T15:20:54.906Z,2.00
2019-04-11T15:23:47.857Z,1.60
2019-04-11T15:26:36.636Z,1.43
2019-04-11T15:29:09.003Z,1.23
2019-04-11T15:32:17.009Z,1.60
2019-04-11T15:35:10.853Z,1.43
2019-04-11T15:38:04.822Z,1.30
2019-04-11T15:40:37.093Z,1.50
2019-04-11T15:43:31.019Z,1.10
2019-04-11T15:46:05.612Z,1.00
2019-04-11T15:49:00.674Z,1.50
2019-04-11T15:51:58.846Z,1.30
2019-04-11T15:54:46.916Z,1.20
2019-04-11T15:57:34.962Z,1.17
2019-04-11T16:00:30.491Z,1.10
2019-04-11T16:03:10.596Z,1.13
2019-04-11T16:05:57.376Z,1.13
2019-04-11T16:08:31.492Z,1.20
2019-04-11T16:11:22.420Z,1.40
2019-04-11T16:14:12.343Z,1.20
2019-04-11T16:17:00.389Z,1.20
2019-04-11T16:19:48.001Z,1.10
2019-04-11T16:22:39.601Z,1.23
2019-04-11T16:25:11.401Z,1.33
2019-04-11T16:27:59.450Z,1.40
2019-04-11T16:30:28.482Z,1.40
2019-04-11T16:33:10.633Z,1.20
2019-04-11T16:35:46.365Z,1.30
2019-04-11T16:38:18.748Z,1.53
2019-04-11T16:41:05.271Z,1.50
2019-04-11T16:43:34.270Z,1.40
2019-04-11T16:46:24.664Z,1.40
2019-04-11T16:48:55.633Z,1.33
2019-04-11T16:51:30.718Z,1.30
2019-04-11T16:53:53.799Z,1.33
2019-04-11T16:56:22.842Z,1.60
2019-04-11T16:58:51.915Z,1.30
2019-04-11T17:01:23.144Z,1.33
2019-04-11T17:03:54.882Z,1.40
2019-04-11T17:06:35.575Z,1.27
2019-04-11T17:09:09.711Z,1.10
2019-04-11T17:11:38.647Z,1.50
2019-04-11T17:14:07.786Z,1.30
2019-04-11T17:16:36.770Z,1.33
2019-04-11T17:19:06.258Z,1.50
2019-04-11T17:21:43.058Z,1.60
2019-04-11T17:24:06.294Z,1.60
2019-04-11T17:26:35.380Z,1.30
2019-04-11T17:29:04.385Z,1.30
2019-04-11T17:31:33.378Z,1.50
2019-04-11T17:34:03.369Z,1.20
2019-04-11T17:36:33.807Z,1.20
2019-04-11T17:39:06.807Z,1.23
2019-04-11T17:41:34.594Z,1.20
2019-04-11T17:44:03.745Z,1.37
2019-04-11T17:46:32.811Z,1.30
2019-04-11T17:49:01.877Z,1.20
2019-04-11T17:51:34.415Z,1.53
2019-04-11T17:54:01.747Z,1.10
2019-04-11T17:56:30.782Z,1.20
2019-04-11T17:59:00.115Z,1.20
2019-04-11T18:01:29.086Z,1.30
2019-04-11T18:03:58.237Z,1.37
2019-04-11T18:06:27.290Z,1.10
2019-04-11T18:08:56.440Z,1.30
2019-04-11T18:11:26.127Z,1.83
2019-04-11T18:13:55.763Z,1.27
2019-04-11T18:16:24.810Z,1.70
2019-04-11T18:18:53.876Z,1.17
2019-04-11T18:21:22.967Z,1.00
2019-04-11T18:23:52.051Z,1.00
2019-04-11T18:26:22.007Z,1.07
2019-04-11T18:28:51.997Z,1.20
2019-04-11T18:31:24.801Z,1.20
2019-04-11T18:33:52.514Z,1.77
2019-04-11T18:36:21.650Z,1.50
2019-04-11T18:38:50.717Z,1.33
2019-04-11T18:41:19.886Z,1.10
2019-04-11T18:43:50.800Z,1.30
2019-04-11T18:46:19.773Z,1.40
2019-04-11T18:48:48.912Z,1.30
2019-04-11T18:51:18.025Z,1.30
2019-04-11T18:53:47.004Z,1.23
2019-04-11T18:56:16.094Z,1.23
2019-04-11T18:58:45.143Z,1.23
2019-04-11T19:01:17.835Z,1.20
2019-04-11T19:03:45.895Z,1.33
2019-04-11T19:06:14.970Z,1.33
2019-04-11T19:08:44.142Z,1.47
2019-04-11T19:11:15.544Z,1.40
2019-04-11T19:13:46.726Z,1.40
2019-04-11T19:16:16.171Z,1.30
2019-04-11T19:18:47.590Z,1.20
2019-04-11T19:21:20.034Z,1.30
2019-04-11T19:23:47.374Z,1.40
2019-04-11T19:26:16.475Z,1.57
2019-04-11T19:28:45.525Z,1.20
2019-04-11T19:31:14.597Z,1.70
2019-04-11T19:33:43.644Z,1.50
2019-04-11T19:36:12.887Z,1.20
2019-04-11T19:38:43.316Z,1.17
2019-04-11T19:41:16.966Z,1.10
2019-04-11T19:43:43.650Z,1.20
2019-04-11T19:46:12.769Z,1.00
2019-04-11T19:48:41.830Z,1.33
2019-04-11T19:51:11.116Z,1.30
2019-04-11T19:53:40.327Z,1.20
2019-04-11T19:56:17.219Z,1.20
2019-04-11T19:58:46.273Z,1.00
2019-04-11T20:01:15.346Z,1.17
2019-04-11T20:03:44.326Z,1.33
2019-04-11T20:06:13.586Z,1.00
2019-04-11T20:08:42.793Z,1.00
2019-04-11T20:11:11.928Z,1.10
2019-04-11T20:13:40.974Z,0.90
2019-04-11T20:16:12.433Z,0.80
2019-04-11T20:18:50.305Z,1.20
2019-04-11T20:21:11.593Z,1.23
2019-04-11T20:23:41.894Z,1.60
2019-04-11T20:26:11.546Z,1.00
2019-04-11T20:28:40.597Z,1.30
2019-04-11T20:31:09.666Z,1.40
2019-04-11T20:33:38.644Z,1.50
2019-04-11T20:36:08.210Z,1.17
2019-04-11T20:38:38.388Z,1.30
2019-04-11T20:41:07.427Z,1.27
2019-04-11T20:43:36.477Z,1.30
2019-04-11T20:46:05.554Z,1.23
2019-04-11T20:48:35.274Z,1.40
2019-04-11T20:51:04.494Z,1.40
2019-04-11T20:53:36.641Z,1.70
2019-04-11T20:56:04.284Z,1.77
2019-04-11T20:58:33.263Z,1.60
2019-04-11T21:01:02.367Z,2.03
2019-04-11T21:03:31.359Z,1.80
2019-04-11T21:06:01.716Z,1.30
2019-04-11T21:08:33.168Z,1.40
2019-04-11T21:11:04.453Z,1.40
2019-04-11T21:13:32.715Z,1.30
2019-04-11T21:16:01.725Z,1.70
2019-04-11T21:18:30.763Z,2.00
2019-04-11T21:20:59.846Z,1.67
2019-04-11T21:23:29.736Z,1.70
2019-04-11T21:25:59.733Z,1.67
2019-04-11T21:28:30.297Z,1.93
2019-04-11T21:31:00.093Z,1.70
2019-04-11T21:33:34.219Z,2.07
2019-04-11T21:36:01.366Z,1.73
2019-04-11T21:38:31.550Z,1.77
2019-04-11T21:41:00.670Z,1.60
2019-04-11T21:43:29.734Z,2.00
2019-04-11T21:45:58.804Z,2.23
2019-04-11T21:48:27.981Z,2.50
2019-04-11T21:50:56.899Z,2.53
2019-04-11T21:53:35.968Z,2.30
2019-04-11T21:55:56.742Z,2.13
2019-04-11T21:58:25.785Z,2.43
2019-04-11T22:01:01.378Z,3.27
2019-04-11T22:03:31.021Z,3.07
2019-04-11T22:06:00.645Z,2.60
2019-04-11T22:08:31.918Z,3.60
2019-04-11T22:11:03.039Z,3.00
2019-04-11T22:13:31.165Z,3.37
2019-04-11T22:16:00.249Z,2.83
2019-04-11T22:18:29.310Z,3.77
2019-04-11T22:20:58.384Z,4.17
2019-04-11T22:23:27.358Z,4.53
2019-04-11T22:25:56.386Z,4.23
2019-04-11T22:28:25.455Z,4.20
2019-04-11T22:30:55.077Z,4.13
2019-04-11T22:33:29.322Z,4.73
2019-04-11T22:35:59.366Z,3.80
2019-04-11T22:38:30.941Z,3.80
2019-04-11T22:41:02.165Z,3.03
2019-04-11T22:43:30.531Z,4.93
2019-04-11T22:45:59.618Z,3.60
2019-04-11T22:48:28.653Z,5.10
2019-04-11T22:50:57.653Z,4.47
2019-04-11T22:53:26.572Z,4.50
2019-04-11T22:55:55.626Z,4.60
2019-04-11T22:58:24.686Z,4.27
2019-04-11T23:00:53.746Z,3.50
2019-04-11T23:03:47.582Z,3.73
2019-04-11T23:06:17.195Z,4.23
2019-04-11T23:08:49.005Z,3.00
2019-04-11T23:11:17.693Z,2.80
2019-04-11T23:13:46.671Z,4.30
2019-04-11T23:16:15.742Z,4.83
2019-04-11T23:18:44.937Z,4.10
2019-04-11T23:21:15.023Z,3.60
2019-04-11T23:23:44.143Z,4.33
2019-04-11T23:26:13.241Z,3.27
2019-04-11T23:28:45.923Z,4.33
2019-04-11T23:31:13.074Z,4.33
2019-04-11T23:33:42.160Z,4.00
2019-04-11T23:36:11.207Z,3.50
2019-04-11T23:38:40.293Z,5.77
2019-04-11T23:41:09.346Z,4.43
2019-04-11T23:43:38.427Z,4.00
2019-04-11T23:46:07.519Z,3.97
2019-04-11T23:48:36.409Z,3.00
2019-04-11T23:51:05.458Z,3.30
2019-04-11T23:53:34.568Z,2.53
2019-04-11T23:56:03.625Z,3.90
2019-04-11T23:58:32.710Z,3.47
